Strona główna
METAR-TAF:

METAR-TAF

Lotnisko :

Indianapolis, Indiana, Stany Zjednoczone

Szerokość geograficzna: 39-49-30N, Długość geograficzna: 086-17-45W, wysokość: 250 m

Aktualna obserwacja pogody

Raport powstał 24 minut temu, godzina 07:34 UTC
Wiatr 8 kt od północny zachód
Temperatura -10°C
Wilgotność 79%
Ciśnienie 1031 hPa
Widzialność: 16.1 km
Zachmurzenie całkowite na wysokości 1400 ft

METAR: KEYE 200734Z AUTO 32008KT 10SM OVC014 M10/M13 A3046 RMK AO2 T11001128 $

czas: 02:58 (07:58 UTC)


TAF: brakujący

Obserwacja i prognoza pogody dla ponad 4000 lotnisk (raport METAR i TAF).

Dostępne stacje oznaczono żółtymi i czerwonymi punktami na mapie.

Najedź kursorem aby zobaczyć nazwę stacji.

Kliknij aby zobaczyć obserwacje i prognozy pogody.

Aby zmienić mapę: kliknij na zielony przycisk z czarnym krzyżykiem, aby powiększyć; na zielony przycisk z myślnikiem, aby pomniejszyć; na zielone strzałki, aby przejść do map sąsiednich.


METAR-TAF: